Airfield :
LOGIN :

Register | Disclaimer

   EN    FR    IT 

 










Legend :    VFR   Marginal VFR   IFR   Intensive IFR   Very Intensive IFR
Visi :
Ceiling :
>= 8 km
>= 3000ft
5 to 8 km
1000 to 3000 ft
1500m to 5 km
500 to 1000 ft
800 to 1500m
200 to 500 ft
< 800m
< 200 ft
Symbols :   Thunderstorms  Fog  Heavy snow  Heavy precipitations  Wind > 20 kt
SIGMETs :     Misc.  Thunderstorms  Icing  Turbulence  Mountain Waves  Volcanic Ashes







- Airport Elevation : 231 ft
- IATA code : WTN


EGXW - RAF Waddington

CURRENT METAR :
  • 220350Z 14007KT CAVOK 13/12 Q1009 RERA BLU

EXPIRED METARs :
  • 220250Z 16012KT 7000 RA FEW040 SCT060 BKN080 15/12 Q1011 WHT
  • 220150Z 15013KT 4000 -SHRA FEW040 BKN080 14/12 Q1011 GRN

TAF TAF EGXW
Valid from the 22 at 03:00 until the 22 at 21:00 UTC


220143Z 2203/2221 17012KT 9999 FEW045
PROB30
TEMPO 2203/2206 17020G30KT 3000 TSRA BKN040CB
PROB30
TEMPO 2209/2212 SCT022
BECMG 2210/2213 24013KT
TEMPO 2212/2215 6000 SHRA
No reported NOTAMs for that airfield.
1 SIGMET reported for the London FIR (EGTT) :
 
Embedded thunderstorms and hail
EGTT SIGMET 01 VALID 220330/220700 EGRR
EGTT LONDON FIR EMBD TSGR FCST WI N5437 W00243 - N5340 E00142 - N5142 E00150 - N5213 W00132 - N5437 W00243 TOP FL320 MOV N 15KT NC=



MET'MAP, your aeronautical weather chart ! - Copyright ORBIFLY December 2007 - Disclaimer

ORBIFLY MET'MAP TEAM :

Programming & Development : Alexandra Zaïnal
Concept & Development : Baudouin d'Aumeries
Co-Development & Prog : Marc-Olivier Méhu
Technical & hardware support : Manuel Goepfert

Contact : metmap@orbifly.com




SOURCES & CREDITS :

   NOAA